Time;durP1;ratioP1;P1;durP2;ratioP2;P2;SDS_P1;SDS_P2;PMS_P1;PMS_P2;Temp;Humidity;BMP_temperature;BMP_pressure;BME280_temperature;BME280_humidity;BME280_pressure;Samples;Min_cycle;Max_cycle;Signal;HPM_P1;HPM_P2
2023/04/10 00:02:20;;;;;;;79.10;13.00;;;8.00;77.60;;;;;;5015488;28;20249;-80
2023/04/10 00:04:46;;;;;;;73.97;11.23;;;7.90;81.00;;;;;;5015199;28;20236;-80
2023/04/10 00:07:11;;;;;;;74.60;12.60;;;7.90;80.50;;;;;;5015279;28;20162;-80
2023/04/10 00:09:37;;;;;;;74.77;11.83;;;7.90;83.40;;;;;;5015221;28;20165;-80
2023/04/10 00:12:04;;;;;;;76.30;13.10;;;7.80;82.70;;;;;;5015243;28;20197;-80
2023/04/10 00:14:30;;;;;;;73.75;10.93;;;7.80;89.00;;;;;;5014985;28;20417;-80
2023/04/10 00:16:55;;;;;;;75.18;11.60;;;7.80;87.30;;;;;;5015344;28;20549;-80
2023/04/10 00:19:24;;;;;;;74.90;12.20;;;7.80;83.60;;;;;;5112380;23;20233;-84
2023/04/10 00:21:50;;;;;;;74.25;10.77;;;7.80;88.80;;;;;;5043368;28;20184;-86
2023/04/10 00:24:16;;;;;;;78.27;13.57;;;7.70;92.70;;;;;;5042962;28;20196;-85
2023/04/10 00:26:42;;;;;;;73.77;10.83;;;7.70;92.10;;;;;;5043666;28;20470;-85
2023/04/10 00:29:08;;;;;;;77.80;13.27;;;7.80;91.00;;;;;;5044882;28;20169;-86
2023/04/10 00:31:34;;;;;;;75.13;11.40;;;7.70;91.70;;;;;;5050337;28;20188;-86
2023/04/10 00:34:00;;;;;;;76.57;12.38;;;7.50;94.50;;;;;;5049280;28;20189;-86
2023/04/10 00:36:26;;;;;;;79.53;12.87;;;7.50;95.40;;;;;;5050239;28;20175;-86
2023/04/10 00:38:52;;;;;;;75.50;12.05;;;7.50;95.40;;;;;;5049763;28;20403;-86
2023/04/10 00:41:22;;;;;;;72.80;10.70;;;7.50;96.20;;;;;;5050323;28;20161;-86
2023/04/10 00:43:48;;;;;;;75.22;12.60;;;7.50;97.80;;;;;;5050217;28;20196;-86
2023/04/10 00:46:14;;;;;;;76.70;12.30;;;7.40;97.30;;;;;;5049657;28;20161;-86
2023/04/10 00:48:40;;;;;;;78.28;12.65;;;7.40;99.90;;;;;;5049983;28;20153;-86
2023/04/10 00:51:06;;;;;;;80.72;13.32;;;7.40;99.90;;;;;;5050353;28;20208;-86
2023/04/10 00:53:32;;;;;;;74.90;11.87;;;7.40;99.90;;;;;;5049874;28;20193;-86
2023/04/10 00:56:00;;;;;;;75.63;12.40;;;7.40;98.90;;;;;;5049915;28;20958;-86
2023/04/10 00:58:25;;;;;;;77.07;13.80;;;7.30;99.20;;;;;;5048882;28;20412;-86
2023/04/10 01:00:52;;;;;;;75.60;12.57;;;7.30;99.90;;;;;;5050433;28;20141;-86
2023/04/10 01:03:19;;;;;;;74.63;12.63;;;7.40;99.60;;;;;;5049258;28;20185;-86
2023/04/10 01:06:08;;;;;;;78.05;13.65;;;7.50;97.60;;;;;;5052296;28;20193;-86
2023/04/10 01:08:46;;;;;;;76.10;12.85;;;7.50;96.50;;;;;;5053035;28;20156;-86
2023/04/10 01:11:25;;;;;;;76.20;12.35;;;7.40;98.00;;;;;;5052570;28;20193;-86
2023/04/10 01:13:57;;;;;;;74.60;13.48;;;7.50;98.80;;;;;;5052978;28;20177;-85
2023/04/10 01:16:30;;;;;;;73.93;12.05;;;7.60;95.70;;;;;;5054094;28;20161;-86
2023/04/10 01:19:04;;;;;;;74.70;11.75;;;7.60;93.50;;;;;;5051898;28;20194;-86
2023/04/10 01:21:32;;;;;;;75.28;12.30;;;7.60;95.10;;;;;;5053831;28;20163;-86
2023/04/10 01:24:07;;;;;;;74.75;12.55;;;7.60;96.00;;;;;;5052363;28;20220;-86
2023/04/10 01:26:52;;;;;;;74.00;11.38;;;7.60;95.40;;;;;;5052955;28;20165;-86
2023/04/10 01:29:19;;;;;;;74.50;11.95;;;7.50;95.60;;;;;;5052525;28;20149;-86
2023/04/10 01:31:57;;;;;;;74.40;11.75;;;7.60;95.70;;;;;;5051752;28;20196;-86
2023/04/10 01:34:42;;;;;;;78.72;13.38;;;7.50;93.10;;;;;;5052376;28;20200;-86
2023/04/10 01:37:14;;;;;;;74.38;12.10;;;7.60;93.20;;;;;;5053669;28;20209;-86
2023/04/10 01:39:42;;;;;;;76.97;13.25;;;7.60;92.20;;;;;;5052140;28;20153;-86
2023/04/10 01:42:10;;;;;;;77.97;13.57;;;7.60;91.60;;;;;;5052936;28;20264;-86
2023/04/10 01:44:41;;;;;;;75.65;12.70;;;7.60;91.20;;;;;;5051816;28;20185;-86
2023/04/10 01:47:07;;;;;;;78.28;13.80;;;7.60;90.00;;;;;;5051332;28;20141;-86
2023/04/10 01:49:36;;;;;;;78.67;13.03;;;7.60;90.30;;;;;;5051842;28;20161;-86
2023/04/10 01:52:02;;;;;;;80.85;13.45;;;7.60;90.90;;;;;;5050340;28;20255;-86
2023/04/10 01:54:30;;;;;;;76.13;12.10;;;7.60;91.00;;;;;;5052102;28;20181;-86
2023/04/10 01:57:01;;;;;;;77.60;12.52;;;7.50;92.40;;;;;;5051309;28;20283;-86
2023/04/10 01:59:26;;;;;;;77.93;14.05;;;7.50;92.60;;;;;;5050518;28;20161;-86
2023/04/10 02:01:59;;;;;;;80.57;14.50;;;7.60;91.70;;;;;;5052326;28;20691;-86
2023/04/10 02:04:26;;;;;;;75.38;12.38;;;7.60;92.20;;;;;;5050561;28;20189;-86
2023/04/10 02:07:31;;;;;;;77.35;13.02;;;7.50;91.80;;;;;;5051454;28;20172;-86
2023/04/10 02:10:38;;;;;;;78.43;12.82;;;7.50;91.80;;;;;;5051542;28;20260;-86
2023/04/10 02:13:13;;;;;;;78.05;14.05;;;7.50;91.90;;;;;;5049492;28;20201;-86
2023/04/10 02:15:42;;;;;;;77.35;13.25;;;7.50;87.90;;;;;;5049428;28;20153;-86
2023/04/10 02:18:10;;;;;;;73.93;12.10;;;7.50;88.90;;;;;;5050983;28;20193;-86
2023/04/10 02:20:36;;;;;;;75.35;12.45;;;7.50;87.60;;;;;;5049432;28;20166;-84
2023/04/10 02:23:04;;;;;;;77.15;13.63;;;7.50;90.20;;;;;;5043706;28;20184;-84
2023/04/10 02:25:34;;;;;;;73.13;11.30;;;7.50;90.80;;;;;;5041699;28;20707;-84
2023/04/10 02:28:04;;;;;;;76.00;12.57;;;7.50;92.30;;;;;;5043506;28;20203;-84
2023/04/10 02:30:30;;;;;;;75.43;12.90;;;7.50;92.00;;;;;;5046874;28;20172;-86
2023/04/10 02:32:55;;;;;;;75.20;12.70;;;7.40;91.70;;;;;;5045635;28;20197;-84
2023/04/10 02:35:21;;;;;;;79.67;14.17;;;7.40;91.00;;;;;;5045807;28;20659;-84
2023/04/10 02:37:49;;;;;;;75.70;13.03;;;7.40;92.60;;;;;;5047845;28;20651;-86
2023/04/10 02:40:15;;;;;;;75.75;13.30;;;7.40;91.80;;;;;;5046412;28;20227;-86
2023/04/10 02:42:41;;;;;;;74.40;12.35;;;7.40;92.50;;;;;;5046804;28;20255;-85
2023/04/10 02:45:08;;;;;;;76.30;12.67;;;7.40;92.40;;;;;;5049148;28;20227;-86
2023/04/10 02:47:34;;;;;;;75.05;11.60;;;7.40;93.30;;;;;;5050266;28;20426;-86
2023/04/10 02:49:59;;;;;;;76.87;14.07;;;7.40;93.30;;;;;;5049913;28;20241;-86
2023/04/10 02:52:25;;;;;;;75.27;13.87;;;7.40;92.00;;;;;;5051128;28;20462;-86
2023/04/10 02:54:51;;;;;;;75.17;13.20;;;7.40;92.40;;;;;;5051022;28;20237;-86
2023/04/10 02:57:17;;;;;;;76.80;13.63;;;7.30;92.20;;;;;;5049362;28;20168;-86
2023/04/10 02:59:43;;;;;;;78.73;12.50;;;7.20;93.60;;;;;;5051918;28;20157;-86
2023/04/10 03:02:09;;;;;;;75.38;12.15;;;7.20;94.80;;;;;;5049877;28;20432;-86
2023/04/10 03:04:35;;;;;;;74.63;12.25;;;7.20;95.40;;;;;;5050694;28;20212;-86
2023/04/10 03:07:01;;;;;;;78.10;13.30;;;7.20;94.30;;;;;;5051108;28;20161;-86
2023/04/10 03:09:27;;;;;;;74.30;12.23;;;7.30;92.90;;;;;;5050860;28;21004;-86
2023/04/10 03:11:53;;;;;;;75.82;12.63;;;7.20;91.80;;;;;;5049707;28;20459;-86
2023/04/10 03:14:19;;;;;;;75.63;12.67;;;7.30;93.50;;;;;;5052036;28;20234;-86
2023/04/10 03:16:47;;;;;;;75.47;13.00;;;7.20;92.40;;;;;;5050726;28;20450;-87
2023/04/10 03:19:13;;;;;;;75.85;12.48;;;7.20;92.50;;;;;;5049159;28;20196;-86
2023/04/10 03:21:39;;;;;;;76.70;12.97;;;7.20;92.30;;;;;;5049493;28;20169;-86
2023/04/10 03:24:05;;;;;;;78.63;14.05;;;7.20;92.40;;;;;;5049991;28;20446;-87
2023/04/10 03:26:31;;;;;;;76.97;13.85;;;7.30;91.20;;;;;;5049580;28;20643;-86
2023/04/10 03:28:57;;;;;;;75.53;13.30;;;7.20;90.90;;;;;;5049796;28;20173;-86
2023/04/10 03:31:23;;;;;;;77.53;13.47;;;7.20;90.80;;;;;;5049130;28;20420;-86
2023/04/10 03:33:49;;;;;;;75.63;11.63;;;7.10;91.60;;;;;;5049157;28;20260;-86
2023/04/10 03:36:14;;;;;;;73.90;12.80;;;7.10;92.00;;;;;;5048338;28;20183;-86
2023/04/10 03:38:40;;;;;;;77.57;13.80;;;7.10;91.10;;;;;;5048014;28;20422;-86
2023/04/10 03:41:06;;;;;;;74.10;11.97;;;7.10;90.90;;;;;;5050030;28;20447;-86
2023/04/10 03:43:32;;;;;;;74.70;12.47;;;7.00;91.50;;;;;;5048622;28;20192;-86
2023/04/10 03:45:57;;;;;;;75.47;12.77;;;7.10;92.50;;;;;;5049489;28;20161;-86
2023/04/10 03:48:26;;;;;;;74.17;11.77;;;7.00;93.40;;;;;;5048954;28;20173;-86
2023/04/10 03:50:53;;;;;;;76.38;13.05;;;7.10;91.60;;;;;;5049782;28;20157;-86
2023/04/10 03:53:19;;;;;;;73.45;11.07;;;7.10;91.30;;;;;;5049580;28;20197;-86
2023/04/10 03:55:45;;;;;;;78.13;13.90;;;7.10;90.70;;;;;;5050166;28;20655;-86
2023/04/10 03:58:11;;;;;;;75.13;12.90;;;7.10;91.00;;;;;;5050039;28;20230;-86
2023/04/10 04:00:37;;;;;;;78.03;13.40;;;7.00;90.90;;;;;;5048921;28;20157;-86
2023/04/10 04:03:04;;;;;;;75.07;13.23;;;7.00;93.00;;;;;;5030778;28;20660;-86
2023/04/10 04:05:30;;;;;;;77.30;13.10;;;6.90;92.30;;;;;;5049076;28;20451;-86
2023/04/10 04:07:56;;;;;;;78.78;14.20;;;6.90;93.00;;;;;;5032845;28;20228;-86
2023/04/10 04:10:23;;;;;;;76.17;14.13;;;6.90;94.40;;;;;;5050285;28;20188;-86
2023/04/10 04:12:51;;;;;;;75.80;12.88;;;6.80;93.20;;;;;;5048543;28;20185;-87
2023/04/10 04:15:17;;;;;;;74.43;12.82;;;6.80;93.00;;;;;;5050504;28;20165;-86
2023/04/10 04:17:45;;;;;;;75.97;13.27;;;6.80;94.80;;;;;;5050354;28;20185;-86
2023/04/10 04:20:10;;;;;;;78.15;15.00;;;6.80;95.70;;;;;;5050192;28;20165;-86
2023/04/10 04:22:36;;;;;;;75.50;12.67;;;6.80;94.40;;;;;;5049379;28;20169;-86
2023/04/10 04:25:07;;;;;;;73.97;12.70;;;6.90;93.40;;;;;;5049932;28;20416;-86
2023/04/10 04:27:33;;;;;;;74.90;12.55;;;6.70;96.80;;;;;;5049930;28;20404;-86
2023/04/10 04:29:59;;;;;;;78.17;12.03;;;6.70;97.80;;;;;;5049890;28;20183;-86
2023/04/10 04:32:25;;;;;;;76.72;13.05;;;6.70;96.70;;;;;;5049006;28;20203;-85
2023/04/10 04:34:51;;;;;;;74.77;12.50;;;6.70;97.00;;;;;;5049291;28;20173;-86
2023/04/10 04:37:16;;;;;;;74.47;12.97;;;6.60;98.40;;;;;;5048221;28;20188;-87
2023/04/10 04:39:42;;;;;;;75.87;12.93;;;6.60;99.20;;;;;;5049790;28;20167;-86
2023/04/10 04:42:08;;;;;;;75.87;12.47;;;6.60;99.50;;;;;;5049174;28;20172;-86
2023/04/10 04:44:34;;;;;;;74.37;12.90;;;6.60;98.70;;;;;;5049426;28;20188;-86
2023/04/10 04:47:00;;;;;;;75.13;14.00;;;6.60;97.90;;;;;;5050537;28;20161;-86
2023/04/10 04:49:25;;;;;;;77.50;12.97;;;6.60;98.60;;;;;;5050166;28;20188;-86
2023/04/10 04:51:51;;;;;;;78.37;13.37;;;6.60;98.20;;;;;;5048707;28;20511;-86
2023/04/10 04:54:17;;;;;;;79.00;13.20;;;6.50;98.00;;;;;;5050405;28;20181;-85
2023/04/10 04:56:43;;;;;;;73.43;12.63;;;6.50;99.10;;;;;;5050286;28;20165;-86
2023/04/10 04:59:08;;;;;;;75.87;12.50;;;6.50;98.80;;;;;;5049029;28;20644;-86
2023/04/10 05:01:34;;;;;;;76.20;12.73;;;6.60;97.30;;;;;;5050666;28;20408;-86
2023/04/10 05:04:00;;;;;;;74.77;12.90;;;6.70;96.90;;;;;;5048176;28;20212;-85
2023/04/10 05:06:25;;;;;;;75.97;13.33;;;6.70;95.70;;;;;;5047732;28;20169;-84
2023/04/10 05:08:51;;;;;;;73.80;11.20;;;6.70;95.00;;;;;;5039946;28;20181;-84
2023/04/10 05:11:17;;;;;;;73.35;11.25;;;6.70;93.20;;;;;;5039271;28;20275;-84
2023/04/10 05:13:43;;;;;;;77.30;13.30;;;6.70;94.50;;;;;;5039468;28;20189;-84
2023/04/10 05:16:09;;;;;;;75.20;12.63;;;6.80;93.30;;;;;;5038301;28;20431;-84
2023/04/10 05:18:35;;;;;;;75.77;12.70;;;6.80;90.30;;;;;;5038506;28;20241;-86
2023/04/10 05:21:00;;;;;;;74.60;11.93;;;6.90;87.70;;;;;;5040336;28;20475;-84
2023/04/10 05:23:26;;;;;;;74.40;10.73;;;6.90;86.20;;;;;;5040774;28;20224;-84
2023/04/10 05:25:52;;;;;;;75.47;12.20;;;7.00;85.20;;;;;;5039299;28;20652;-84
2023/04/10 05:28:18;;;;;;;74.10;11.57;;;7.00;82.90;;;;;;5039925;28;20170;-86
2023/04/10 05:30:44;;;;;;;75.27;11.60;;;7.00;81.80;;;;;;5040531;28;20200;-87
2023/04/10 05:33:09;;;;;;;75.73;12.33;;;7.10;84.40;;;;;;5040070;28;20605;-86
2023/04/10 05:35:35;;;;;;;74.33;12.30;;;7.20;80.50;;;;;;5042413;28;20162;-86
2023/04/10 05:38:01;;;;;;;74.63;12.17;;;7.20;81.10;;;;;;5043529;28;20165;-87
2023/04/10 05:40:28;;;;;;;75.47;11.20;;;7.30;82.90;;;;;;5044132;28;20521;-87
2023/04/10 05:42:53;;;;;;;73.10;11.25;;;7.40;85.40;;;;;;5043002;28;20219;-87
2023/04/10 05:45:19;;;;;;;77.33;11.80;;;7.40;81.50;;;;;;5044033;28;20229;-87
2023/04/10 05:47:45;;;;;;;73.55;12.00;;;7.50;83.40;;;;;;5043151;28;20177;-87
2023/04/10 05:50:11;;;;;;;73.53;11.70;;;7.60;85.50;;;;;;5045470;28;20244;-87
2023/04/10 05:52:36;;;;;;;75.17;12.63;;;7.60;89.50;;;;;;5048171;28;20649;-87
2023/04/10 05:55:02;;;;;;;75.50;11.63;;;7.70;87.80;;;;;;5047058;28;20189;-87
2023/04/10 05:57:29;;;;;;;74.27;12.20;;;7.70;82.80;;;;;;5047516;28;20157;-87
2023/04/10 05:59:54;;;;;;;74.65;12.73;;;7.70;78.50;;;;;;5047744;28;20422;-87
2023/04/10 06:02:23;;;;;;;75.07;12.00;;;7.60;77.50;;;;;;5047285;28;20169;-87
2023/04/10 06:04:50;;;;;;;74.65;11.95;;;7.70;78.10;;;;;;5046554;28;20432;-87
2023/04/10 06:07:15;;;;;;;74.22;11.98;;;7.60;77.20;;;;;;5047386;28;20182;-87
2023/04/10 06:09:41;;;;;;;73.60;11.80;;;7.60;80.90;;;;;;5047055;28;20165;-87
2023/04/10 06:12:07;;;;;;;72.37;10.80;;;7.60;81.50;;;;;;5047374;28;20221;-87
2023/04/10 06:14:33;;;;;;;74.67;12.60;;;7.70;82.80;;;;;;5044674;28;20189;-87
2023/04/10 06:16:59;;;;;;;75.63;12.25;;;7.70;81.40;;;;;;5046415;28;20170;-87
2023/04/10 06:19:25;;;;;;;76.57;13.50;;;7.80;80.50;;;;;;5089883;22;20235;-87
2023/04/10 06:21:51;;;;;;;72.33;12.30;;;7.80;82.50;;;;;;5024403;28;20178;-87
2023/04/10 06:24:16;;;;;;;74.83;12.40;;;7.90;82.10;;;;;;5025843;28;20257;-87
2023/04/10 06:26:42;;;;;;;75.40;11.57;;;7.90;79.20;;;;;;5025810;28;20178;-87
2023/04/10 06:29:08;;;;;;;77.50;12.73;;;8.00;82.50;;;;;;5025131;28;20188;-87
2023/04/10 06:31:33;;;;;;;76.00;12.70;;;8.10;76.30;;;;;;5023647;28;20237;-86
2023/04/10 06:33:59;;;;;;;75.50;12.77;;;8.20;77.10;;;;;;5023988;28;20437;-87
2023/04/10 06:36:28;;;;;;;78.47;13.90;;;8.30;76.40;;;;;;5026106;28;20193;-87
2023/04/10 06:38:53;;;;;;;74.72;11.80;;;8.40;71.90;;;;;;5026483;28;20154;-87
2023/04/10 06:41:22;;;;;;;75.10;13.73;;;8.50;67.80;;;;;;5024382;28;20224;-87
2023/04/10 06:43:48;;;;;;;76.75;12.38;;;8.60;59.00;;;;;;5026628;28;20189;-87
2023/04/10 06:46:14;;;;;;;75.90;10.97;;;8.70;52.30;;;;;;5026166;28;20154;-87
2023/04/10 06:48:40;;;;;;;74.60;11.20;;;8.80;47.10;;;;;;5024570;28;20162;-87
2023/04/10 06:51:06;;;;;;;76.80;13.37;;;9.00;40.50;;;;;;5025659;28;20576;-87
2023/04/10 06:53:32;;;;;;;75.70;12.27;;;9.10;36.30;;;;;;5026140;28;20198;-87
2023/04/10 06:55:58;;;;;;;72.03;10.30;;;9.30;38.70;;;;;;5025579;28;20423;-87
2023/04/10 06:58:24;;;;;;;78.70;11.10;;;9.30;29.60;;;;;;5023599;28;20417;-87
2023/04/10 07:00:49;;;;;;;73.27;10.30;;;9.40;28.60;;;;;;5022619;28;20174;-87
2023/04/10 07:03:15;;;;;;;76.27;11.60;;;9.50;24.60;;;;;;5023750;28;20424;-87
2023/04/10 07:05:41;;;;;;;80.43;10.40;;;9.50;25.70;;;;;;5024268;28;20248;-87
2023/04/10 07:08:07;;;;;;;80.03;11.07;;;9.60;20.90;;;;;;5022303;28;20166;-87
2023/04/10 07:10:33;;;;;;;74.75;11.48;;;9.70;19.60;;;;;;5022482;28;20170;-86
2023/04/10 07:13:02;;;;;;;73.37;10.63;;;9.90;17.50;;;;;;5023723;28;20695;-87
2023/04/10 07:15:27;;;;;;;76.68;11.73;;;10.00;14.70;;;;;;5023329;28;20162;-87
2023/04/10 07:17:55;;;;;;;78.00;11.80;;;10.20;9.60;;;;;;5022079;28;20236;-87
2023/04/10 07:20:20;;;;;;;74.47;11.50;;;10.30;3.30;;;;;;5022211;28;20166;-87
2023/04/10 07:22:46;;;;;;;73.57;11.30;;;10.30;1.30;;;;;;5023360;28;20221;-87
2023/04/10 07:25:13;;;;;;;73.97;10.70;;;10.30;1.00;;;;;;5022546;28;20322;-86
2023/04/10 07:27:41;;;;;;;73.57;9.40;;;10.40;1.00;;;;;;5023655;28;20162;-87
2023/04/10 07:30:08;;;;;;;72.90;10.40;;;10.60;1.00;;;;;;5023481;28;20176;-87
2023/04/10 07:32:33;;;;;;;72.40;9.68;;;10.70;1.00;;;;;;5023287;28;20276;-86
2023/04/10 07:34:59;;;;;;;73.30;9.30;;;10.70;1.00;;;;;;5023894;28;20220;-87
2023/04/10 07:37:25;;;;;;;75.15;10.65;;;10.80;1.00;;;;;;5023526;28;20169;-87
2023/04/10 07:39:54;;;;;;;72.10;9.37;;;10.90;1.00;;;;;;5023581;28;20165;-87
2023/04/10 07:42:20;;;;;;;72.47;9.68;;;10.90;1.00;;;;;;5024390;28;20169;-87
2023/04/10 07:44:45;;;;;;;73.83;9.60;;;10.90;1.00;;;;;;5024135;28;20216;-87
2023/04/10 07:47:11;;;;;;;70.13;9.20;;;11.00;1.00;;;;;;5023378;28;20507;-87
2023/04/10 07:49:37;;;;;;;72.87;10.10;;;11.00;1.00;;;;;;5022029;28;20174;-87
2023/04/10 07:52:02;;;;;;;72.90;9.53;;;11.00;1.00;;;;;;5023754;28;20208;-87
2023/04/10 07:54:32;;;;;;;73.00;8.67;;;11.00;1.00;;;;;;5024101;28;20261;-86
2023/04/10 07:56:57;;;;;;;73.15;9.50;;;11.00;1.00;;;;;;5023716;28;20158;-87
2023/04/10 07:59:27;;;;;;;70.50;9.60;;;11.10;1.00;;;;;;5024310;28;20172;-86
2023/04/10 08:01:53;;;;;;;71.13;9.40;;;11.20;1.00;;;;;;5024012;28;20216;-87
2023/04/10 08:04:19;;;;;;;71.68;9.65;;;11.30;1.00;;;;;;5021547;28;20194;-86
2023/04/10 08:06:44;;;;;;;70.77;9.23;;;11.40;1.00;;;;;;5021325;28;20576;-87
2023/04/10 08:09:10;;;;;;;78.57;10.10;;;11.50;1.00;;;;;;5021962;28;20413;-86
2023/04/10 08:11:36;;;;;;;74.20;11.90;;;11.60;1.00;;;;;;5023123;28;20190;-86
2023/04/10 08:14:04;;;;;;;71.00;9.27;;;11.70;1.00;;;;;;5023295;28;20193;-86
2023/04/10 08:16:33;;;;;;;73.03;9.52;;;11.80;1.00;;;;;;5022425;28;20178;-87
2023/04/10 08:19:03;;;;;;;71.00;9.38;;;11.90;1.00;;;;;;5022736;28;20190;-87
2023/04/10 08:21:30;;;;;;;72.43;9.55;;;12.00;1.00;;;;;;5021413;28;20220;-87
2023/04/10 08:23:57;;;;;;;71.18;9.32;;;12.00;1.00;;;;;;5020870;28;20197;-87
2023/04/10 08:26:28;;;;;;;72.03;10.75;;;12.10;1.00;;;;;;5021005;28;20577;-87
2023/04/10 08:28:56;;;;;;;70.95;9.30;;;12.20;1.00;;;;;;5021948;28;20165;-87
2023/04/10 08:31:25;;;;;;;72.95;9.65;;;12.30;1.00;;;;;;5022164;28;20169;-87
2023/04/10 08:33:51;;;;;;;74.65;9.85;;;12.30;1.00;;;;;;5022136;28;20208;-86
2023/04/10 08:36:17;;;;;;;71.27;9.57;;;12.40;1.00;;;;;;5019924;28;20256;-87
2023/04/10 08:38:46;;;;;;;70.87;9.80;;;12.40;1.00;;;;;;5020010;28;20166;-87
2023/04/10 08:41:18;;;;;;;69.75;10.35;;;12.50;1.00;;;;;;5019836;28;20463;-87
2023/04/10 08:43:45;;;;;;;72.55;10.40;;;12.60;1.00;;;;;;5019546;28;20204;-87
2023/04/10 08:46:11;;;;;;;70.30;10.18;;;12.60;1.00;;;;;;5020506;28;20173;-87
2023/04/10 08:48:44;;;;;;;72.10;10.98;;;12.60;1.00;;;;;;5018255;28;20170;-87
2023/04/10 08:51:15;;;;;;;73.55;10.40;;;12.70;1.00;;;;;;5020606;28;20193;-87
2023/04/10 08:53:49;;;;;;;70.25;8.82;;;12.80;1.00;;;;;;5021256;28;20665;-87
2023/04/10 08:56:16;;;;;;;70.95;9.75;;;12.90;1.00;;;;;;5020860;28;20594;-87
2023/04/10 08:58:42;;;;;;;70.28;8.60;;;13.00;1.00;;;;;;5020727;28;20157;-87
2023/04/10 09:01:10;;;;;;;69.05;8.20;;;13.10;1.00;;;;;;5017247;28;20250;-87
2023/04/10 09:03:36;;;;;;;71.82;8.98;;;13.10;1.00;;;;;;5020194;28;20221;-87
2023/04/10 09:06:03;;;;;;;70.20;8.88;;;13.10;1.00;;;;;;5020483;28;20162;-87
2023/04/10 09:08:29;;;;;;;70.80;8.65;;;13.10;1.00;;;;;;5018752;28;20687;-87
2023/04/10 09:10:56;;;;;;;70.80;8.65;;;13.10;1.00;;;;;;5019326;28;20178;-87
2023/04/10 09:13:38;;;;;;;70.88;9.07;;;13.20;1.00;;;;;;5020446;28;20569;-87
2023/04/10 09:16:05;;;;;;;71.55;7.70;;;13.30;1.00;;;;;;5019702;28;20169;-87
2023/04/10 09:18:49;;;;;;;68.82;7.82;;;13.20;1.00;;;;;;5018713;28;20232;-87
2023/04/10 09:21:18;;;;;;;68.15;7.00;;;13.20;1.00;;;;;;5020202;28;20154;-87
2023/04/10 09:23:45;;;;;;;69.43;6.80;;;13.20;1.00;;;;;;5019019;28;20284;-87
2023/04/10 09:26:25;;;;;;;68.82;6.70;;;13.30;1.00;;;;;;5023549;28;20243;-87
2023/04/10 09:28:56;;;;;;;69.47;6.88;;;13.30;1.00;;;;;;5023699;28;20173;-86
2023/04/10 09:31:34;;;;;;;70.10;7.00;;;13.40;1.00;;;;;;5020671;28;20165;-87
2023/04/10 09:34:13;;;;;;;69.07;6.68;;;13.60;1.00;;;;;;5020851;28;20190;-87
2023/04/10 09:37:00;;;;;;;68.82;6.90;;;13.70;1.00;;;;;;5022031;28;20168;-87
2023/04/10 09:39:39;;;;;;;71.60;7.00;;;13.80;1.00;;;;;;5023570;28;20245;-87
2023/04/10 09:42:05;;;;;;;67.13;6.30;;;13.90;1.00;;;;;;5022049;28;20170;-87
2023/04/10 09:44:33;;;;;;;68.70;7.00;;;14.20;1.00;;;;;;5023791;28;20735;-87
2023/04/10 09:47:16;;;;;;;67.60;6.57;;;14.30;1.00;;;;;;5020511;28;20948;-87
2023/04/10 09:49:55;;;;;;;66.82;6.00;;;14.60;1.00;;;;;;5020536;28;20433;-87
2023/04/10 09:52:32;;;;;;;69.10;7.10;;;14.60;1.00;;;;;;5020617;28;20185;-87
2023/04/10 09:55:00;;;;;;;67.57;6.35;;;14.70;1.00;;;;;;5020541;28;20401;-87
2023/04/10 09:57:28;;;;;;;69.60;7.40;;;14.60;1.00;;;;;;5019691;28;20166;-87
2023/04/10 09:59:56;;;;;;;68.97;6.20;;;14.60;1.00;;;;;;5022192;28;20405;-87
2023/04/10 10:02:24;;;;;;;68.07;6.23;;;14.70;1.00;;;;;;5023423;28;20170;-87
2023/04/10 10:04:51;;;;;;;71.78;6.63;;;14.80;1.00;;;;;;5023128;28;20465;-87
2023/04/10 10:07:21;;;;;;;66.70;5.57;;;14.70;1.00;;;;;;5021521;28;20177;-87
2023/04/10 10:09:50;;;;;;;68.97;6.63;;;14.80;1.00;;;;;;5022922;28;20684;-87
2023/04/10 10:12:21;;;;;;;69.38;6.53;;;14.90;1.00;;;;;;5025542;28;20463;-86
2023/04/10 10:14:59;;;;;;;69.10;6.87;;;15.00;1.00;;;;;;5027486;28;20193;-86
2023/04/10 10:17:30;;;;;;;69.10;5.40;;;15.20;1.00;;;;;;5010948;28;20400;-86
2023/04/10 10:20:03;;;;;;;70.60;6.77;;;15.20;1.00;;;;;;5027590;28;20787;-86
2023/04/10 10:22:31;;;;;;;68.00;5.67;;;15.30;1.00;;;;;;5026791;28;20792;-86
2023/04/10 10:24:59;;;;;;;68.67;6.17;;;15.30;1.00;;;;;;5009336;28;20479;-85
2023/04/10 10:27:27;;;;;;;67.67;5.83;;;15.50;1.00;;;;;;5025456;28;20444;-86
2023/04/10 10:29:55;;;;;;;69.73;6.40;;;15.70;1.00;;;;;;5027102;28;20405;-86
2023/04/10 10:32:21;;;;;;;69.07;6.23;;;15.90;1.00;;;;;;5025878;28;20456;-86
2023/04/10 10:34:50;;;;;;;68.97;6.50;;;16.10;1.00;;;;;;5024775;28;20432;-85
2023/04/10 10:37:17;;;;;;;70.07;6.53;;;16.10;1.00;;;;;;5023806;28;20780;-86
2023/04/10 10:40:01;;;;;;;70.30;6.70;;;16.10;1.00;;;;;;5025257;28;20469;-86
2023/04/10 10:42:32;;;;;;;69.37;6.93;;;16.10;1.00;;;;;;5025625;28;20429;-86
2023/04/10 10:45:11;;;;;;;70.27;7.20;;;16.10;1.00;;;;;;5025733;28;20408;-86
2023/04/10 10:47:54;;;;;;;68.17;6.30;;;16.20;1.00;;;;;;5025124;28;20441;-86
2023/04/10 10:50:22;;;;;;;68.57;6.60;;;16.40;1.00;;;;;;5025282;28;20951;-86
2023/04/10 10:52:51;;;;;;;68.60;6.30;;;16.60;1.00;;;;;;5025029;28;20927;-86
2023/04/10 10:55:38;;;;;;;68.17;5.60;;;16.70;1.00;;;;;;5026700;28;20413;-85
2023/04/10 10:58:08;;;;;;;69.87;6.70;;;16.90;1.00;;;;;;5025050;28;20409;-85
2023/04/10 11:00:49;;;;;;;70.10;6.20;;;16.90;1.00;;;;;;5026011;28;20410;-85
2023/04/10 11:03:18;;;;;;;68.60;5.87;;;16.80;1.00;;;;;;5024715;28;20452;-85
2023/04/10 11:06:05;;;;;;;68.17;5.40;;;16.80;1.00;;;;;;5024945;28;20440;-85
2023/04/10 11:08:51;;;;;;;67.90;5.80;;;16.80;1.00;;;;;;5024330;28;20413;-85
2023/04/10 11:11:27;;;;;;;66.37;4.90;;;16.80;1.00;;;;;;5025341;28;20447;-85
2023/04/10 11:13:55;;;;;;;69.80;5.80;;;16.80;1.00;;;;;;5024753;28;20472;-85
2023/04/10 11:16:42;;;;;;;68.50;4.43;;;16.70;1.00;;;;;;5023708;28;20403;-87
2023/04/10 11:19:12;;;;;;;68.67;5.97;;;16.70;1.00;;;;;;5021517;28;20936;-87
2023/04/10 11:22:14;;;;;;;66.60;5.23;;;16.70;1.00;;;;;;5019783;28;20418;-87
2023/04/10 11:24:51;;;;;;;67.20;4.63;;;16.70;1.00;;;;;;4998480;28;20452;-87
2023/04/10 11:27:47;;;;;;;68.77;5.60;;;16.70;1.00;;;;;;5019709;28;20922;-87
2023/04/10 11:30:32;;;;;;;67.67;5.00;;;16.80;1.00;;;;;;5020126;28;20400;-86
2023/04/10 11:33:02;;;;;;;68.50;5.50;;;16.90;1.00;;;;;;5022000;28;21050;-87
2023/04/10 11:35:30;;;;;;;68.47;5.23;;;16.80;1.00;;;;;;5020720;28;20421;-86
2023/04/10 11:38:25;;;;;;;68.77;6.13;;;16.80;1.00;;;;;;5020502;28;20413;-87
2023/04/10 11:40:56;;;;;;;67.57;5.40;;;16.90;1.00;;;;;;5017227;28;20413;-87
2023/04/10 11:43:21;;;;;;;67.10;5.70;;;16.90;1.00;;;;;;5021935;28;20436;-87
2023/04/10 11:45:47;;;;;;;68.07;5.20;;;16.90;1.00;;;;;;5020640;28;20421;-87
2023/04/10 11:48:15;;;;;;;67.93;5.40;;;16.90;1.00;;;;;;5020258;28;20174;-87
2023/04/10 11:50:41;;;;;;;67.70;4.40;;;16.90;1.00;;;;;;5021185;28;20402;-87
2023/04/10 11:53:28;;;;;;;67.20;4.40;;;16.90;1.00;;;;;;5021291;28;20501;-87
2023/04/10 11:55:55;;;;;;;67.57;5.00;;;16.90;1.00;;;;;;5022005;28;20383;-87
2023/04/10 11:58:23;;;;;;;67.57;4.40;;;17.00;1.00;;;;;;5021938;28;20425;-86
2023/04/10 12:01:03;;;;;;;67.50;4.20;;;17.20;1.00;;;;;;5022120;28;20472;-86
2023/04/10 12:03:38;;;;;;;67.00;4.47;;;17.30;1.00;;;;;;5021657;28;20492;-87
2023/04/10 12:06:11;;;;;;;67.60;5.07;;;17.40;1.00;;;;;;5021757;28;20396;-87
2023/04/10 12:08:40;;;;;;;67.00;4.23;;;17.40;1.00;;;;;;5022306;28;20398;-87
2023/04/10 12:11:06;;;;;;;67.30;4.13;;;17.40;1.00;;;;;;5021550;28;20505;-87
2023/04/10 12:13:32;;;;;;;67.87;3.63;;;17.60;1.00;;;;;;5020724;28;21108;-87
2023/04/10 12:16:03;;;;;;;67.47;4.37;;;17.70;1.00;;;;;;5020567;28;20440;-86
2023/04/10 12:18:29;;;;;;;68.67;4.60;;;17.80;1.00;;;;;;5101625;23;20847;-87
2023/04/10 12:20:57;;;;;;;69.57;4.97;;;17.80;1.00;;;;;;5042230;28;20394;-87
2023/04/10 12:23:24;;;;;;;67.37;4.43;;;18.00;1.00;;;;;;5041549;28;20438;-87
2023/04/10 12:25:50;;;;;;;67.60;4.50;;;18.20;1.00;;;;;;5041532;28;20434;-87
2023/04/10 12:28:20;;;;;;;67.93;4.87;;;18.30;1.00;;;;;;5039846;28;20922;-87
2023/04/10 12:30:54;;;;;;;68.67;5.30;;;18.30;1.00;;;;;;5039380;28;20406;-87
2023/04/10 12:33:24;;;;;;;67.40;4.37;;;18.30;1.00;;;;;;5040378;28;20459;-87
2023/04/10 12:35:52;;;;;;;68.20;5.30;;;18.30;1.00;;;;;;5040645;28;20403;-87
2023/04/10 12:38:38;;;;;;;68.27;4.93;;;18.40;1.00;;;;;;5042303;28;20489;-87
2023/04/10 12:41:05;;;;;;;67.50;5.20;;;18.40;1.00;;;;;;5040056;28;20498;-87
2023/04/10 12:43:40;;;;;;;68.10;4.93;;;18.60;1.00;;;;;;5041783;28;20495;-86
2023/04/10 12:46:08;;;;;;;67.23;4.60;;;18.70;1.00;;;;;;5040945;28;20410;-87
2023/04/10 12:48:34;;;;;;;67.27;5.30;;;18.80;1.00;;;;;;5040851;28;20412;-87
2023/04/10 12:51:00;;;;;;;68.27;5.40;;;19.00;1.00;;;;;;5040233;28;20487;-87